sensor_id;sensor_type;location;lat;lon;timestamp;pressure;altitude;pressure_sealevel;temperature;humidity
73024;BME280;61199;47.526;8.538;2023-04-21T00:02:13;96050.47;;;7.13;73.83
73024;BME280;61199;47.526;8.538;2023-04-21T00:04:41;96043.72;;;7.10;73.41
73024;BME280;61199;47.526;8.538;2023-04-21T00:07:07;96038.38;;;7.12;73.75
73024;BME280;61199;47.526;8.538;2023-04-21T00:09:34;96043.47;;;7.13;73.78
73024;BME280;61199;47.526;8.538;2023-04-21T00:12:00;96042.41;;;7.16;74.16
73024;BME280;61199;47.526;8.538;2023-04-21T00:14:26;96046.66;;;7.17;74.28
73024;BME280;61199;47.526;8.538;2023-04-21T00:16:53;96046.16;;;7.23;74.27
73024;BME280;61199;47.526;8.538;2023-04-21T00:19:19;96042.34;;;7.27;74.18
73024;BME280;61199;47.526;8.538;2023-04-21T00:21:46;96054.19;;;7.31;74.29
73024;BME280;61199;47.526;8.538;2023-04-21T00:24:12;96042.81;;;7.32;73.95
73024;BME280;61199;47.526;8.538;2023-04-21T00:26:39;96046.81;;;7.36;74.03
73024;BME280;61199;47.526;8.538;2023-04-21T00:29:05;96040.16;;;7.43;73.92
73024;BME280;61199;47.526;8.538;2023-04-21T00:31:31;96038.03;;;7.37;73.86
73024;BME280;61199;47.526;8.538;2023-04-21T00:33:58;96034.00;;;7.44;73.81
73024;BME280;61199;47.526;8.538;2023-04-21T00:36:24;96026.88;;;7.46;73.87
73024;BME280;61199;47.526;8.538;2023-04-21T00:38:53;96027.47;;;7.49;74.12
73024;BME280;61199;47.526;8.538;2023-04-21T00:41:19;96023.13;;;7.39;74.29
73024;BME280;61199;47.526;8.538;2023-04-21T00:44:06;96023.31;;;7.47;73.93
73024;BME280;61199;47.526;8.538;2023-04-21T00:46:33;96017.53;;;7.43;74.87
73024;BME280;61199;47.526;8.538;2023-04-21T00:49:03;96011.50;;;7.43;74.57
73024;BME280;61199;47.526;8.538;2023-04-21T00:51:31;96011.25;;;7.46;75.01
73024;BME280;61199;47.526;8.538;2023-04-21T00:53:59;96007.56;;;7.48;74.86
73024;BME280;61199;47.526;8.538;2023-04-21T00:56:30;96003.06;;;7.50;74.98
73024;BME280;61199;47.526;8.538;2023-04-21T00:58:58;96003.63;;;7.54;74.92
73024;BME280;61199;47.526;8.538;2023-04-21T01:01:26;95995.16;;;7.61;74.93
73024;BME280;61199;47.526;8.538;2023-04-21T01:03:58;95999.50;;;7.72;74.58
73024;BME280;61199;47.526;8.538;2023-04-21T01:06:30;95998.81;;;7.70;74.62
73024;BME280;61199;47.526;8.538;2023-04-21T01:08:57;96004.59;;;7.73;74.86
73024;BME280;61199;47.526;8.538;2023-04-21T01:11:24;96016.97;;;7.81;74.52
73024;BME280;61199;47.526;8.538;2023-04-21T01:13:54;96017.94;;;7.80;74.45
73024;BME280;61199;47.526;8.538;2023-04-21T01:16:21;96023.28;;;7.78;74.46
73024;BME280;61199;47.526;8.538;2023-04-21T01:18:50;96028.16;;;7.72;74.42
73024;BME280;61199;47.526;8.538;2023-04-21T01:21:19;96027.22;;;7.73;74.53
73024;BME280;61199;47.526;8.538;2023-04-21T01:23:45;96020.53;;;7.80;74.47
73024;BME280;61199;47.526;8.538;2023-04-21T01:26:11;96029.56;;;7.76;74.59
73024;BME280;61199;47.526;8.538;2023-04-21T01:28:38;96025.25;;;7.86;74.13
73024;BME280;61199;47.526;8.538;2023-04-21T01:31:05;96020.16;;;7.84;74.11
73024;BME280;61199;47.526;8.538;2023-04-21T01:33:31;96031.41;;;7.85;74.47
73024;BME280;61199;47.526;8.538;2023-04-21T01:35:58;96030.41;;;7.76;74.45
73024;BME280;61199;47.526;8.538;2023-04-21T01:38:26;96030.50;;;7.75;74.51
73024;BME280;61199;47.526;8.538;2023-04-21T01:40:53;96027.66;;;7.78;74.10
73024;BME280;61199;47.526;8.538;2023-04-21T01:43:22;96034.53;;;7.79;74.05
73024;BME280;61199;47.526;8.538;2023-04-21T01:45:50;96029.06;;;7.82;74.23
73024;BME280;61199;47.526;8.538;2023-04-21T01:48:16;96020.34;;;7.92;73.88
73024;BME280;61199;47.526;8.538;2023-04-21T01:50:43;96026.81;;;7.98;73.67
73024;BME280;61199;47.526;8.538;2023-04-21T01:53:09;96028.88;;;7.94;73.93
73024;BME280;61199;47.526;8.538;2023-04-21T01:55:36;96022.25;;;7.90;73.66
73024;BME280;61199;47.526;8.538;2023-04-21T01:58:02;96009.66;;;7.95;73.82
73024;BME280;61199;47.526;8.538;2023-04-21T02:00:29;96007.88;;;7.96;73.64
73024;BME280;61199;47.526;8.538;2023-04-21T02:02:55;96010.09;;;8.00;73.27
73024;BME280;61199;47.526;8.538;2023-04-21T02:05:22;96017.22;;;7.98;73.54
73024;BME280;61199;47.526;8.538;2023-04-21T02:07:48;96020.38;;;8.02;73.70
73024;BME280;61199;47.526;8.538;2023-04-21T02:10:15;96015.16;;;8.02;73.59
73024;BME280;61199;47.526;8.538;2023-04-21T02:12:41;96015.44;;;7.99;73.37
73024;BME280;61199;47.526;8.538;2023-04-21T02:15:08;96010.22;;;7.99;73.53
73024;BME280;61199;47.526;8.538;2023-04-21T02:17:34;96010.50;;;7.96;73.61
73024;BME280;61199;47.526;8.538;2023-04-21T02:20:01;96020.19;;;7.94;73.87
73024;BME280;61199;47.526;8.538;2023-04-21T02:22:29;96026.94;;;7.96;73.30
73024;BME280;61199;47.526;8.538;2023-04-21T02:24:55;96028.38;;;8.00;73.55
73024;BME280;61199;47.526;8.538;2023-04-21T02:27:22;96036.03;;;8.02;73.50
73024;BME280;61199;47.526;8.538;2023-04-21T02:29:48;96026.44;;;8.02;73.57
73024;BME280;61199;47.526;8.538;2023-04-21T02:32:15;96020.66;;;7.99;73.96
73024;BME280;61199;47.526;8.538;2023-04-21T02:34:51;96023.00;;;8.02;73.82
73024;BME280;61199;47.526;8.538;2023-04-21T02:37:17;96019.31;;;8.04;73.89
73024;BME280;61199;47.526;8.538;2023-04-21T02:39:44;96025.78;;;8.10;73.58
73024;BME280;61199;47.526;8.538;2023-04-21T02:42:11;96029.25;;;8.10;74.16
73024;BME280;61199;47.526;8.538;2023-04-21T02:44:37;96017.97;;;8.10;73.93
73024;BME280;61199;47.526;8.538;2023-04-21T02:47:04;96018.81;;;8.10;73.92
73024;BME280;61199;47.526;8.538;2023-04-21T02:49:30;96026.75;;;8.09;73.70
73024;BME280;61199;47.526;8.538;2023-04-21T02:51:57;96017.41;;;8.06;73.57
73024;BME280;61199;47.526;8.538;2023-04-21T02:54:23;96007.28;;;8.13;73.44
73024;BME280;61199;47.526;8.538;2023-04-21T02:56:49;96010.31;;;8.18;73.23
73024;BME280;61199;47.526;8.538;2023-04-21T02:59:16;96005.09;;;8.18;73.25
73024;BME280;61199;47.526;8.538;2023-04-21T03:01:43;96006.19;;;8.15;73.04
73024;BME280;61199;47.526;8.538;2023-04-21T03:04:09;96005.38;;;8.15;72.96
73024;BME280;61199;47.526;8.538;2023-04-21T03:06:36;96006.06;;;8.17;72.80
73024;BME280;61199;47.526;8.538;2023-04-21T03:09:02;96001.44;;;8.20;72.80
73024;BME280;61199;47.526;8.538;2023-04-21T03:11:29;96007.63;;;8.19;73.04
73024;BME280;61199;47.526;8.538;2023-04-21T03:13:55;96007.22;;;8.24;73.00
73024;BME280;61199;47.526;8.538;2023-04-21T03:16:21;95999.41;;;8.24;72.92
73024;BME280;61199;47.526;8.538;2023-04-21T03:18:48;96005.19;;;8.27;72.84
73024;BME280;61199;47.526;8.538;2023-04-21T03:21:14;96009.56;;;8.27;72.92
73024;BME280;61199;47.526;8.538;2023-04-21T03:23:41;96012.44;;;8.24;72.95
73024;BME280;61199;47.526;8.538;2023-04-21T03:26:07;96007.94;;;8.26;72.99
73024;BME280;61199;47.526;8.538;2023-04-21T03:28:34;96013.41;;;8.23;73.04
73024;BME280;61199;47.526;8.538;2023-04-21T03:31:00;96010.41;;;8.27;72.58
73024;BME280;61199;47.526;8.538;2023-04-21T03:33:26;96012.31;;;8.25;72.69
73024;BME280;61199;47.526;8.538;2023-04-21T03:35:53;96004.63;;;8.24;72.92
73024;BME280;61199;47.526;8.538;2023-04-21T03:38:19;96003.66;;;8.25;73.06
73024;BME280;61199;47.526;8.538;2023-04-21T03:40:46;96000.38;;;8.23;73.19
73024;BME280;61199;47.526;8.538;2023-04-21T03:43:12;95993.22;;;8.25;73.04
73024;BME280;61199;47.526;8.538;2023-04-21T03:45:38;96005.19;;;8.27;72.91
73024;BME280;61199;47.526;8.538;2023-04-21T03:48:05;95994.19;;;8.24;73.06
73024;BME280;61199;47.526;8.538;2023-04-21T03:50:31;95999.69;;;8.30;72.54
73024;BME280;61199;47.526;8.538;2023-04-21T03:52:57;95999.97;;;8.27;72.71
73024;BME280;61199;47.526;8.538;2023-04-21T03:55:24;95999.13;;;8.27;73.07
73024;BME280;61199;47.526;8.538;2023-04-21T03:57:50;96000.50;;;8.21;72.80
73024;BME280;61199;47.526;8.538;2023-04-21T04:00:17;96001.31;;;8.22;72.87
73024;BME280;61199;47.526;8.538;2023-04-21T04:02:43;95997.75;;;8.23;72.65
73024;BME280;61199;47.526;8.538;2023-04-21T04:05:10;95988.97;;;8.24;72.74
73024;BME280;61199;47.526;8.538;2023-04-21T04:07:36;95996.34;;;8.19;72.80
73024;BME280;61199;47.526;8.538;2023-04-21T04:10:02;95993.97;;;8.16;72.80
73024;BME280;61199;47.526;8.538;2023-04-21T04:12:29;95993.13;;;8.15;72.97
73024;BME280;61199;47.526;8.538;2023-04-21T04:14:56;95991.13;;;8.19;72.91
73024;BME280;61199;47.526;8.538;2023-04-21T04:17:22;95989.56;;;8.16;73.18
73024;BME280;61199;47.526;8.538;2023-04-21T04:19:49;95994.19;;;8.24;73.13
73024;BME280;61199;47.526;8.538;2023-04-21T04:22:15;95990.91;;;8.22;73.17
73024;BME280;61199;47.526;8.538;2023-04-21T04:24:41;95993.03;;;8.17;73.54
73024;BME280;61199;47.526;8.538;2023-04-21T04:27:10;95988.97;;;8.24;73.56
73024;BME280;61199;47.526;8.538;2023-04-21T04:29:39;95986.09;;;8.27;73.43
73024;BME280;61199;47.526;8.538;2023-04-21T04:32:07;95980.47;;;8.22;73.52
73024;BME280;61199;47.526;8.538;2023-04-21T04:34:36;95983.75;;;8.24;73.39
73024;BME280;61199;47.526;8.538;2023-04-21T04:37:02;95968.28;;;8.11;73.92
73024;BME280;61199;47.526;8.538;2023-04-21T04:39:30;95982.81;;;8.04;74.10
73024;BME280;61199;47.526;8.538;2023-04-21T04:41:57;95980.09;;;8.15;73.54
73024;BME280;61199;47.526;8.538;2023-04-21T04:44:23;95980.06;;;8.06;74.03
73024;BME280;61199;47.526;8.538;2023-04-21T04:46:50;95987.63;;;8.09;74.06
73024;BME280;61199;47.526;8.538;2023-04-21T04:49:18;95985.19;;;8.17;73.82
73024;BME280;61199;47.526;8.538;2023-04-21T04:51:44;95993.03;;;8.17;74.08
73024;BME280;61199;47.526;8.538;2023-04-21T04:54:11;95988.28;;;8.22;73.71
73024;BME280;61199;47.526;8.538;2023-04-21T04:56:37;95989.94;;;8.23;73.64
73024;BME280;61199;47.526;8.538;2023-04-21T04:59:04;95995.56;;;8.28;73.76
73024;BME280;61199;47.526;8.538;2023-04-21T05:01:30;95986.59;;;8.21;74.04
73024;BME280;61199;47.526;8.538;2023-04-21T05:03:57;95983.75;;;8.24;73.95
73024;BME280;61199;47.526;8.538;2023-04-21T05:06:24;95998.31;;;8.26;73.62
73024;BME280;61199;47.526;8.538;2023-04-21T05:08:50;95989.97;;;8.12;73.89
73024;BME280;61199;47.526;8.538;2023-04-21T05:11:16;95997.03;;;8.21;73.90
73024;BME280;61199;47.526;8.538;2023-04-21T05:13:43;96009.31;;;8.30;73.43
73024;BME280;61199;47.526;8.538;2023-04-21T05:16:09;95997.28;;;8.38;73.05
73024;BME280;61199;47.526;8.538;2023-04-21T05:18:36;96010.44;;;8.37;73.49
73024;BME280;61199;47.526;8.538;2023-04-21T05:21:03;96006.88;;;8.38;73.20
73024;BME280;61199;47.526;8.538;2023-04-21T05:23:29;96011.28;;;8.37;73.12
73024;BME280;61199;47.526;8.538;2023-04-21T05:25:56;96005.66;;;8.42;72.97
73024;BME280;61199;47.526;8.538;2023-04-21T05:28:22;96010.03;;;8.41;72.97
73024;BME280;61199;47.526;8.538;2023-04-21T05:30:49;96015.66;;;8.37;73.16
73024;BME280;61199;47.526;8.538;2023-04-21T05:33:18;96013.63;;;8.40;73.09
73024;BME280;61199;47.526;8.538;2023-04-21T05:35:45;96006.19;;;8.15;73.57
73024;BME280;61199;47.526;8.538;2023-04-21T05:38:11;96018.94;;;8.29;73.07
73024;BME280;61199;47.526;8.538;2023-04-21T05:40:38;96019.03;;;8.28;73.27
73024;BME280;61199;47.526;8.538;2023-04-21T05:43:04;96023.88;;;8.32;73.30
73024;BME280;61199;47.526;8.538;2023-04-21T05:45:30;96024.75;;;8.42;72.81
73024;BME280;61199;47.526;8.538;2023-04-21T05:47:57;96024.75;;;8.42;72.78
73024;BME280;61199;47.526;8.538;2023-04-21T05:50:23;96013.34;;;8.43;72.85
73024;BME280;61199;47.526;8.538;2023-04-21T05:52:53;96020.78;;;8.48;72.79
73024;BME280;61199;47.526;8.538;2023-04-21T05:55:19;96025.22;;;8.27;73.33
73024;BME280;61199;47.526;8.538;2023-04-21T05:57:46;96018.16;;;8.18;74.70
73024;BME280;61199;47.526;8.538;2023-04-21T06:00:13;96020.75;;;8.18;74.12
73024;BME280;61199;47.526;8.538;2023-04-21T06:02:39;96023.28;;;8.19;74.33
73024;BME280;61199;47.526;8.538;2023-04-21T06:05:06;96021.25;;;8.23;73.91
73024;BME280;61199;47.526;8.538;2023-04-21T06:07:34;96011.16;;;8.18;73.66
73024;BME280;61199;47.526;8.538;2023-04-21T06:10:02;96007.03;;;8.16;74.42
73024;BME280;61199;47.526;8.538;2023-04-21T06:12:29;96018.34;;;8.26;74.24
73024;BME280;61199;47.526;8.538;2023-04-21T06:14:55;96015.53;;;8.38;73.49
73024;BME280;61199;47.526;8.538;2023-04-21T06:17:23;96017.91;;;8.51;73.02
73024;BME280;61199;47.526;8.538;2023-04-21T06:19:49;96007.50;;;8.60;73.00
73024;BME280;61199;47.526;8.538;2023-04-21T06:22:22;96024.16;;;8.68;72.58
73024;BME280;61199;47.526;8.538;2023-04-21T06:24:48;96015.63;;;8.66;72.33
73024;BME280;61199;47.526;8.538;2023-04-21T06:27:15;96013.03;;;8.76;72.10
73024;BME280;61199;47.526;8.538;2023-04-21T06:29:42;96018.00;;;8.79;72.03
73024;BME280;61199;47.526;8.538;2023-04-21T06:32:10;96019.63;;;8.80;71.38
73024;BME280;61199;47.526;8.538;2023-04-21T06:34:37;96013.88;;;8.76;71.91
73024;BME280;61199;47.526;8.538;2023-04-21T06:37:03;96012.59;;;8.71;71.76
73024;BME280;61199;47.526;8.538;2023-04-21T06:39:30;96000.69;;;8.78;71.91
73024;BME280;61199;47.526;8.538;2023-04-21T06:41:56;96004.41;;;8.85;71.64
73024;BME280;61199;47.526;8.538;2023-04-21T06:44:26;95998.41;;;8.55;72.70
73024;BME280;61199;47.526;8.538;2023-04-21T06:46:52;96003.94;;;8.61;72.21
73024;BME280;61199;47.526;8.538;2023-04-21T06:49:18;96005.34;;;8.74;71.97
73024;BME280;61199;47.526;8.538;2023-04-21T06:51:45;96000.13;;;8.74;71.73
73024;BME280;61199;47.526;8.538;2023-04-21T06:54:11;95988.47;;;8.78;71.88
73024;BME280;61199;47.526;8.538;2023-04-21T06:56:38;95982.81;;;8.73;72.12
73024;BME280;61199;47.526;8.538;2023-04-21T06:59:04;95986.09;;;8.75;72.03
73024;BME280;61199;47.526;8.538;2023-04-21T07:01:31;95990.50;;;8.84;72.15
73024;BME280;61199;47.526;8.538;2023-04-21T07:03:57;96007.06;;;8.94;72.15
73024;BME280;61199;47.526;8.538;2023-04-21T07:06:24;96015.97;;;9.01;71.73
73024;BME280;61199;47.526;8.538;2023-04-21T07:08:50;96011.44;;;9.03;71.61
73024;BME280;61199;47.526;8.538;2023-04-21T07:11:17;96008.13;;;9.01;71.55
73024;BME280;61199;47.526;8.538;2023-04-21T07:13:44;95999.63;;;8.99;71.56
73024;BME280;61199;47.526;8.538;2023-04-21T07:16:10;95998.25;;;8.95;71.75
73024;BME280;61199;47.526;8.538;2023-04-21T07:18:38;96004.84;;;8.99;71.37
73024;BME280;61199;47.526;8.538;2023-04-21T07:21:05;95996.88;;;9.10;71.42
73024;BME280;61199;47.526;8.538;2023-04-21T07:23:31;95999.91;;;9.15;70.94
73024;BME280;61199;47.526;8.538;2023-04-21T07:25:58;95995.50;;;9.06;71.44
73024;BME280;61199;47.526;8.538;2023-04-21T07:28:24;95996.72;;;9.02;71.12
73024;BME280;61199;47.526;8.538;2023-04-21T07:30:51;95998.25;;;9.05;71.26
73024;BME280;61199;47.526;8.538;2023-04-21T07:33:18;95988.75;;;9.04;71.10
73024;BME280;61199;47.526;8.538;2023-04-21T07:35:44;95983.13;;;9.08;70.94
73024;BME280;61199;47.526;8.538;2023-04-21T07:38:11;95979.03;;;9.15;70.61
73024;BME280;61199;47.526;8.538;2023-04-21T07:40:37;95980.13;;;9.22;70.78
73024;BME280;61199;47.526;8.538;2023-04-21T07:43:04;95991.69;;;9.20;70.74
73024;BME280;61199;47.526;8.538;2023-04-21T07:45:30;95987.81;;;9.14;71.08
73024;BME280;61199;47.526;8.538;2023-04-21T07:47:56;95975.59;;;9.05;71.20
73024;BME280;61199;47.526;8.538;2023-04-21T07:50:24;95976.13;;;9.18;71.22
73024;BME280;61199;47.526;8.538;2023-04-21T07:52:51;95975.72;;;9.13;71.27
73024;BME280;61199;47.526;8.538;2023-04-21T07:55:17;95981.22;;;9.20;71.14
73024;BME280;61199;47.526;8.538;2023-04-21T07:57:43;95984.66;;;9.20;71.02
73024;BME280;61199;47.526;8.538;2023-04-21T08:00:10;95989.72;;;9.12;71.19
73024;BME280;61199;47.526;8.538;2023-04-21T08:02:37;95998.56;;;9.21;70.94
73024;BME280;61199;47.526;8.538;2023-04-21T08:05:04;95995.09;;;9.20;71.07
73024;BME280;61199;47.526;8.538;2023-04-21T08:07:30;96002.41;;;9.26;71.03
73024;BME280;61199;47.526;8.538;2023-04-21T08:09:57;95992.22;;;9.23;71.28
73024;BME280;61199;47.526;8.538;2023-04-21T08:12:24;95991.22;;;8.86;72.32
73024;BME280;61199;47.526;8.538;2023-04-21T08:14:50;95991.66;;;9.01;72.13
73024;BME280;61199;47.526;8.538;2023-04-21T08:17:16;95987.53;;;8.98;72.03
73024;BME280;61199;47.526;8.538;2023-04-21T08:19:43;95987.00;;;9.04;71.60
73024;BME280;61199;47.526;8.538;2023-04-21T08:22:10;95985.06;;;9.06;71.54
73024;BME280;61199;47.526;8.538;2023-04-21T08:24:37;95985.34;;;9.13;71.61
73024;BME280;61199;47.526;8.538;2023-04-21T08:27:03;95978.19;;;9.24;71.56
73024;BME280;61199;47.526;8.538;2023-04-21T08:29:30;95983.28;;;9.35;71.53
73024;BME280;61199;47.526;8.538;2023-04-21T08:31:56;95991.13;;;9.16;72.36
73024;BME280;61199;47.526;8.538;2023-04-21T08:34:23;95987.53;;;9.36;71.78
73024;BME280;61199;47.526;8.538;2023-04-21T08:36:52;95984.53;;;9.50;71.44
73024;BME280;61199;47.526;8.538;2023-04-21T08:39:19;95977.50;;;9.60;70.61
73024;BME280;61199;47.526;8.538;2023-04-21T08:41:46;95973.25;;;9.40;71.17
73024;BME280;61199;47.526;8.538;2023-04-21T08:44:12;95978.06;;;9.45;70.52
73024;BME280;61199;47.526;8.538;2023-04-21T08:46:40;95983.00;;;9.48;70.49
73024;BME280;61199;47.526;8.538;2023-04-21T08:49:08;95986.00;;;9.53;70.46
73024;BME280;61199;47.526;8.538;2023-04-21T08:51:35;95996.75;;;9.59;70.48
73024;BME280;61199;47.526;8.538;2023-04-21T08:54:01;95989.03;;;9.58;70.74
73024;BME280;61199;47.526;8.538;2023-04-21T08:56:28;95976.38;;;9.72;70.42
73024;BME280;61199;47.526;8.538;2023-04-21T08:58:55;95980.06;;;9.79;70.83
73024;BME280;61199;47.526;8.538;2023-04-21T09:01:21;95977.28;;;9.90;69.83
73024;BME280;61199;47.526;8.538;2023-04-21T09:03:48;95969.97;;;10.03;69.59
73024;BME280;61199;47.526;8.538;2023-04-21T09:06:14;95981.69;;;10.09;69.40
73024;BME280;61199;47.526;8.538;2023-04-21T09:08:43;95990.47;;;10.17;69.49
73024;BME280;61199;47.526;8.538;2023-04-21T09:11:17;95991.88;;;10.02;69.81
73024;BME280;61199;47.526;8.538;2023-04-21T09:13:44;95986.91;;;9.99;69.67
73024;BME280;61199;47.526;8.538;2023-04-21T09:16:16;95986.66;;;9.93;69.86
73024;BME280;61199;47.526;8.538;2023-04-21T09:18:43;95985.94;;;10.00;70.13
73024;BME280;61199;47.526;8.538;2023-04-21T09:21:11;95983.78;;;10.05;69.41
73024;BME280;61199;47.526;8.538;2023-04-21T09:23:42;95980.31;;;9.95;68.95
73024;BME280;61199;47.526;8.538;2023-04-21T09:26:10;95978.81;;;9.83;69.63
73024;BME280;61199;47.526;8.538;2023-04-21T09:28:40;95979.53;;;9.76;69.87
73024;BME280;61199;47.526;8.538;2023-04-21T09:31:18;95974.94;;;9.97;70.04
73024;BME280;61199;47.526;8.538;2023-04-21T09:33:46;95982.50;;;10.09;69.86
73024;BME280;61199;47.526;8.538;2023-04-21T09:36:26;95992.25;;;10.17;69.63
73024;BME280;61199;47.526;8.538;2023-04-21T09:41:39;95989.84;;;10.33;68.45
73024;BME280;61199;47.526;8.538;2023-04-21T09:44:06;95995.22;;;10.31;68.60
73024;BME280;61199;47.526;8.538;2023-04-21T09:46:34;95983.94;;;10.31;69.31
73024;BME280;61199;47.526;8.538;2023-04-21T09:49:02;95984.78;;;10.58;68.06
73024;BME280;61199;47.526;8.538;2023-04-21T09:51:30;95979.38;;;10.69;67.79
73024;BME280;61199;47.526;8.538;2023-04-21T09:54:18;95981.13;;;10.78;67.61
73024;BME280;61199;47.526;8.538;2023-04-21T09:56:49;95987.16;;;10.79;67.63
73024;BME280;61199;47.526;8.538;2023-04-21T09:59:25;95986.72;;;10.83;67.43
73024;BME280;61199;47.526;8.538;2023-04-21T10:01:54;95995.50;;;10.38;69.51
73024;BME280;61199;47.526;8.538;2023-04-21T10:04:23;95988.44;;;10.48;69.27
73024;BME280;61199;47.526;8.538;2023-04-21T10:06:51;95984.53;;;10.52;68.78
73024;BME280;61199;47.526;8.538;2023-04-21T10:09:20;95984.94;;;10.57;68.79
73024;BME280;61199;47.526;8.538;2023-04-21T10:11:47;95988.13;;;10.78;68.25
73024;BME280;61199;47.526;8.538;2023-04-21T10:14:14;95976.25;;;10.83;68.29
73024;BME280;61199;47.526;8.538;2023-04-21T10:16:41;95976.63;;;10.88;67.82
73024;BME280;61199;47.526;8.538;2023-04-21T10:19:24;95984.97;;;11.01;67.47
73024;BME280;61199;47.526;8.538;2023-04-21T10:21:54;95980.88;;;11.16;67.08
73024;BME280;61199;47.526;8.538;2023-04-21T10:24:22;95967.31;;;11.21;67.07
73024;BME280;61199;47.526;8.538;2023-04-21T10:26:49;95970.81;;;11.29;66.57
73024;BME280;61199;47.526;8.538;2023-04-21T10:29:30;95971.78;;;11.28;66.55
73024;BME280;61199;47.526;8.538;2023-04-21T10:32:31;95973.34;;;11.21;67.18
73024;BME280;61199;47.526;8.538;2023-04-21T10:35:08;95967.00;;;11.24;67.02
73024;BME280;61199;47.526;8.538;2023-04-21T10:37:34;95960.53;;;11.36;66.91
73024;BME280;61199;47.526;8.538;2023-04-21T10:40:00;95951.13;;;11.25;66.79
73024;BME280;61199;47.526;8.538;2023-04-21T10:42:28;95942.56;;;11.41;66.47
73024;BME280;61199;47.526;8.538;2023-04-21T10:50:21;95920.38;;;11.70;66.07
73024;BME280;61199;47.526;8.538;2023-04-21T10:52:54;95925.06;;;11.84;66.02
73024;BME280;61199;47.526;8.538;2023-04-21T10:55:24;95933.31;;;11.89;65.82
73024;BME280;61199;47.526;8.538;2023-04-21T10:57:52;95940.59;;;11.77;66.65
73024;BME280;61199;47.526;8.538;2023-04-21T11:00:23;95951.88;;;11.95;66.13
73024;BME280;61199;47.526;8.538;2023-04-21T11:02:54;95952.13;;;11.84;65.56
73024;BME280;61199;47.526;8.538;2023-04-21T11:08:02;95928.13;;;12.30;64.99
73024;BME280;61199;47.526;8.538;2023-04-21T11:10:28;95915.84;;;12.39;64.42
73024;BME280;61199;47.526;8.538;2023-04-21T11:12:56;95917.50;;;12.48;64.17
73024;BME280;61199;47.526;8.538;2023-04-21T11:15:23;95918.56;;;12.63;63.92
73024;BME280;61199;47.526;8.538;2023-04-21T11:17:49;95919.28;;;12.81;63.97
73024;BME280;61199;47.526;8.538;2023-04-21T11:20:16;95922.78;;;12.97;63.65
73024;BME280;61199;47.526;8.538;2023-04-21T11:22:42;95913.94;;;13.14;63.39
73024;BME280;61199;47.526;8.538;2023-04-21T11:25:16;95926.75;;;13.09;62.40
73024;BME280;61199;47.526;8.538;2023-04-21T11:27:52;95929.75;;;13.22;61.82
73024;BME280;61199;47.526;8.538;2023-04-21T11:30:19;95932.88;;;13.26;61.76
73024;BME280;61199;47.526;8.538;2023-04-21T11:32:52;95918.22;;;13.07;61.57
73024;BME280;61199;47.526;8.538;2023-04-21T11:35:19;95926.28;;;13.22;61.67
73024;BME280;61199;47.526;8.538;2023-04-21T11:37:49;95926.44;;;13.36;62.23
73024;BME280;61199;47.526;8.538;2023-04-21T11:40:16;95919.75;;;13.42;62.18
73024;BME280;61199;47.526;8.538;2023-04-21T11:42:43;95920.72;;;13.57;61.81
73024;BME280;61199;47.526;8.538;2023-04-21T11:45:16;95913.16;;;13.62;61.50
73024;BME280;61199;47.526;8.538;2023-04-21T11:47:47;95917.94;;;13.58;61.91
73024;BME280;61199;47.526;8.538;2023-04-21T11:50:29;95916.09;;;13.67;61.28
73024;BME280;61199;47.526;8.538;2023-04-21T11:52:57;95920.72;;;13.73;61.16
73024;BME280;61199;47.526;8.538;2023-04-21T11:55:23;95922.53;;;13.56;61.58
73024;BME280;61199;47.526;8.538;2023-04-21T11:57:50;95917.91;;;13.26;61.66
73024;BME280;61199;47.526;8.538;2023-04-21T12:00:17;95925.63;;;13.20;61.21
73024;BME280;61199;47.526;8.538;2023-04-21T12:02:44;95930.13;;;12.78;62.07
73024;BME280;61199;47.526;8.538;2023-04-21T12:05:19;95942.50;;;11.93;65.05
73024;BME280;61199;47.526;8.538;2023-04-21T12:07:46;95951.72;;;11.97;65.67
73024;BME280;61199;47.526;8.538;2023-04-21T12:10:18;95950.38;;;11.93;66.35
73024;BME280;61199;47.526;8.538;2023-04-21T12:12:45;95949.00;;;11.81;66.60
73024;BME280;61199;47.526;8.538;2023-04-21T12:15:19;95952.34;;;11.91;66.34
73024;BME280;61199;47.526;8.538;2023-04-21T12:17:50;95964.75;;;11.81;66.86
73024;BME280;61199;47.526;8.538;2023-04-21T12:20:22;95968.59;;;11.69;67.57
73024;BME280;61199;47.526;8.538;2023-04-21T12:22:48;95971.16;;;12.12;66.84
73024;BME280;61199;47.526;8.538;2023-04-21T12:25:15;95970.09;;;12.56;65.88
73024;BME280;61199;47.526;8.538;2023-04-21T12:27:52;95969.16;;;12.65;66.03
73024;BME280;61199;47.526;8.538;2023-04-21T12:30:19;95975.97;;;12.91;64.26
73024;BME280;61199;47.526;8.538;2023-04-21T12:32:46;95975.72;;;12.61;65.46
73024;BME280;61199;47.526;8.538;2023-04-21T12:35:13;95975.69;;;12.53;65.24
73024;BME280;61199;47.526;8.538;2023-04-21T12:37:39;95979.53;;;12.41;66.84
73024;BME280;61199;47.526;8.538;2023-04-21T12:40:06;95979.81;;;12.30;66.88
73024;BME280;61199;47.526;8.538;2023-04-21T12:42:33;95979.09;;;12.20;67.72
73024;BME280;61199;47.526;8.538;2023-04-21T12:45:03;95975.09;;;12.08;68.30
73024;BME280;61199;47.526;8.538;2023-04-21T12:47:30;95965.31;;;12.18;68.13
73024;BME280;61199;47.526;8.538;2023-04-21T12:49:57;95973.22;;;12.26;68.57
73024;BME280;61199;47.526;8.538;2023-04-21T12:52:23;95974.69;;;12.20;69.20
73024;BME280;61199;47.526;8.538;2023-04-21T12:54:50;95970.59;;;12.26;69.74
73024;BME280;61199;47.526;8.538;2023-04-21T12:57:16;95975.50;;;12.21;69.58
73024;BME280;61199;47.526;8.538;2023-04-21T12:59:42;95965.84;;;11.96;70.36
73024;BME280;61199;47.526;8.538;2023-04-21T13:02:11;95959.28;;;12.00;69.43
73024;BME280;61199;47.526;8.538;2023-04-21T13:04:38;95957.53;;;12.08;69.28
73024;BME280;61199;47.526;8.538;2023-04-21T13:07:07;95947.06;;;12.16;69.08
73024;BME280;61199;47.526;8.538;2023-04-21T13:09:33;95935.56;;;12.09;69.41
73024;BME280;61199;47.526;8.538;2023-04-21T13:12:00;95925.56;;;12.13;68.96
73024;BME280;61199;47.526;8.538;2023-04-21T13:14:27;95914.13;;;12.22;68.91
73024;BME280;61199;47.526;8.538;2023-04-21T13:16:53;95920.44;;;12.37;68.47
73024;BME280;61199;47.526;8.538;2023-04-21T13:19:20;95910.03;;;12.61;67.14
73024;BME280;61199;47.526;8.538;2023-04-21T13:21:46;95919.75;;;12.76;67.21